Time;durP1;ratioP1;P1;durP2;ratioP2;P2;SDS_P1;SDS_P2;PMS_P1;PMS_P2;Temp;Humidity;BMP_temperature;BMP_pressure;BME280_temperature;BME280_humidity;BME280_pressure;Samples;Min_cycle;Max_cycle;Signal;HPM_P1;HPM_P2
2024/01/21 00:01:55;;;;;;;12.40;6.60;;;-3.00;99.90;;;;;;5114425;28;20531;-71
2024/01/21 00:04:22;;;;;;;14.53;5.57;;;-3.00;99.90;;;;;;5113705;28;20184;-71
2024/01/21 00:06:47;;;;;;;15.90;5.07;;;-3.00;99.90;;;;;;5114248;28;20168;-70
2024/01/21 00:09:13;;;;;;;9.90;5.23;;;-3.10;99.90;;;;;;5114431;28;20787;-71
2024/01/21 00:11:38;;;;;;;12.60;5.37;;;-3.10;99.90;;;;;;5096379;28;20165;-70
2024/01/21 00:14:04;;;;;;;9.33;4.37;;;-3.00;99.90;;;;;;5114228;28;20245;-70
2024/01/21 00:16:29;;;;;;;8.77;4.97;;;-3.00;99.90;;;;;;5095898;28;20697;-70
2024/01/21 00:18:55;;;;;;;8.20;4.70;;;-3.10;99.90;;;;;;5114364;28;20258;-71
2024/01/21 00:21:20;;;;;;;9.73;4.67;;;-3.10;99.90;;;;;;5095969;28;20164;-70
2024/01/21 00:23:46;;;;;;;10.23;5.67;;;-3.10;99.90;;;;;;5114130;28;20168;-71
2024/01/21 00:26:12;;;;;;;15.03;6.43;;;-3.10;99.90;;;;;;5113999;28;20168;-71
2024/01/21 00:28:38;;;;;;;13.17;6.57;;;-3.00;99.90;;;;;;5114113;28;20251;-70
2024/01/21 00:31:04;;;;;;;13.10;6.07;;;-3.00;99.90;;;;;;5095785;28;20489;-71
2024/01/21 00:33:30;;;;;;;6.97;4.53;;;-3.00;99.90;;;;;;5113822;28;20185;-70
2024/01/21 00:35:55;;;;;;;11.30;6.10;;;-2.90;99.90;;;;;;5113637;28;20521;-70
2024/01/21 00:38:21;;;;;;;9.10;5.63;;;-2.90;99.90;;;;;;5113525;28;20163;-70
2024/01/21 00:40:46;;;;;;;10.73;5.20;;;-2.90;99.90;;;;;;5113792;28;20169;-71
2024/01/21 00:43:12;;;;;;;8.03;5.80;;;-2.80;99.90;;;;;;5113836;28;20173;-72
2024/01/21 00:45:38;;;;;;;9.50;5.37;;;-2.80;99.90;;;;;;5113515;28;20185;-71
2024/01/21 00:48:04;;;;;;;10.90;5.40;;;-2.70;99.90;;;;;;5113476;28;20168;-71
2024/01/21 00:50:29;;;;;;;14.07;6.90;;;-2.70;99.90;;;;;;5095501;28;20169;-70
2024/01/21 00:52:55;;;;;;;10.73;5.13;;;-2.60;99.90;;;;;;5113400;28;20530;-71
2024/01/21 00:55:20;;;;;;;12.23;5.40;;;-2.60;99.90;;;;;;5094839;28;20246;-70
2024/01/21 00:57:49;;;;;;;13.33;5.80;;;-2.60;99.90;;;;;;5113556;28;20196;-71
2024/01/21 01:00:15;;;;;;;10.17;5.70;;;-2.50;99.90;;;;;;5113504;28;20157;-71
2024/01/21 01:02:40;;;;;;;7.10;5.50;;;-2.50;99.90;;;;;;5113357;28;20865;-71
2024/01/21 01:05:06;;;;;;;11.17;4.87;;;-2.40;99.90;;;;;;5113063;28;20419;-69
2024/01/21 01:07:32;;;;;;;11.73;5.27;;;-2.30;99.90;;;;;;5113115;28;20248;-70
2024/01/21 01:09:58;;;;;;;13.70;4.47;;;-2.30;99.90;;;;;;5112987;28;21034;-70
2024/01/21 01:12:24;;;;;;;16.93;6.13;;;-2.30;99.90;;;;;;5094966;28;20164;-71
2024/01/21 01:14:49;;;;;;;12.63;6.00;;;-2.20;99.90;;;;;;5113381;28;20457;-71
2024/01/21 01:17:15;;;;;;;11.67;7.50;;;-2.20;99.90;;;;;;5112809;28;20173;-70
2024/01/21 01:19:41;;;;;;;11.00;6.90;;;-2.00;99.90;;;;;;5113006;28;20531;-70
2024/01/21 01:22:06;;;;;;;12.50;5.10;;;-2.10;99.90;;;;;;5094603;28;20184;-70
2024/01/21 01:24:32;;;;;;;13.90;7.27;;;-2.00;99.90;;;;;;5112781;28;20423;-69
2024/01/21 01:26:57;;;;;;;11.43;7.20;;;-2.00;99.90;;;;;;5112643;28;20157;-69
2024/01/21 01:29:23;;;;;;;10.40;5.30;;;-2.00;99.90;;;;;;5112885;28;20169;-70
2024/01/21 01:31:48;;;;;;;13.73;7.13;;;-2.00;99.90;;;;;;5112948;28;20260;-71
2024/01/21 01:34:14;;;;;;;12.67;7.23;;;-1.90;99.90;;;;;;5112714;28;20232;-70
2024/01/21 01:36:39;;;;;;;15.23;7.03;;;-1.90;99.90;;;;;;5112630;28;20164;-70
2024/01/21 01:39:07;;;;;;;13.67;6.17;;;-1.90;99.90;;;;;;5112675;28;20192;-69
2024/01/21 01:41:32;;;;;;;13.83;5.73;;;-1.90;99.90;;;;;;5112631;28;20160;-69
2024/01/21 01:43:58;;;;;;;12.43;6.50;;;-1.80;99.90;;;;;;5112593;28;20418;-71
2024/01/21 01:46:23;;;;;;;10.60;6.70;;;-1.80;99.90;;;;;;5112419;28;20168;-71
2024/01/21 01:48:49;;;;;;;13.13;6.43;;;-1.70;99.90;;;;;;5112718;28;20534;-70
2024/01/21 01:51:15;;;;;;;12.90;7.53;;;-1.70;99.90;;;;;;5112523;28;20183;-70
2024/01/21 01:53:42;;;;;;;14.17;7.20;;;-1.70;99.90;;;;;;5112336;28;20470;-71
2024/01/21 01:56:08;;;;;;;9.47;6.10;;;-1.70;99.90;;;;;;5112068;28;20830;-71
2024/01/21 01:58:35;;;;;;;8.90;5.57;;;-1.60;99.90;;;;;;5112591;28;20570;-70
2024/01/21 02:01:00;;;;;;;14.33;7.90;;;-1.60;99.90;;;;;;5112505;28;20399;-72
2024/01/21 02:03:27;;;;;;;13.63;7.70;;;-1.60;99.90;;;;;;5112292;28;20402;-71
2024/01/21 02:05:52;;;;;;;8.10;5.50;;;-1.60;99.90;;;;;;5112189;28;20610;-71
2024/01/21 02:08:18;;;;;;;8.80;7.03;;;-1.50;99.90;;;;;;5112261;28;20396;-71
2024/01/21 02:10:44;;;;;;;10.77;5.47;;;-1.60;99.90;;;;;;5112414;28;20631;-71
2024/01/21 02:13:09;;;;;;;14.33;7.37;;;-1.50;99.90;;;;;;5112260;28;20535;-72
2024/01/21 02:15:35;;;;;;;21.17;8.40;;;-1.50;99.90;;;;;;5093948;28;20484;-70
2024/01/21 02:18:00;;;;;;;14.67;7.53;;;-1.50;99.90;;;;;;5112323;28;20165;-69
2024/01/21 02:20:26;;;;;;;9.30;6.40;;;-1.50;99.90;;;;;;5112221;28;20160;-71
2024/01/21 02:22:58;;;;;;;15.50;5.97;;;-1.50;99.90;;;;;;5093910;28;20171;-72
2024/01/21 02:25:23;;;;;;;12.17;7.33;;;-1.50;99.90;;;;;;5111821;28;20188;-72
2024/01/21 02:27:49;;;;;;;10.30;5.90;;;-1.50;99.90;;;;;;5114988;28;20482;-71
2024/01/21 02:30:14;;;;;;;10.40;6.90;;;-1.50;99.90;;;;;;5116530;28;20188;-71
2024/01/21 02:32:40;;;;;;;9.97;6.57;;;-1.50;99.90;;;;;;5116648;28;20176;-71
2024/01/21 02:35:06;;;;;;;9.57;6.23;;;-1.50;99.90;;;;;;5116078;28;20613;-71
2024/01/21 02:37:31;;;;;;;14.40;8.00;;;-1.50;99.90;;;;;;5116073;28;20250;-72
2024/01/21 02:39:57;;;;;;;10.50;5.60;;;-1.50;99.90;;;;;;5116299;28;20219;-71
2024/01/21 02:42:23;;;;;;;13.90;6.43;;;-1.50;99.90;;;;;;5097891;28;20172;-72
2024/01/21 02:44:50;;;;;;;8.77;5.83;;;-1.50;99.90;;;;;;5097973;28;20192;-70
2024/01/21 02:47:16;;;;;;;12.30;6.23;;;-1.50;99.90;;;;;;5115763;28;20176;-71
2024/01/21 02:49:41;;;;;;;10.27;6.57;;;-1.50;99.90;;;;;;5115697;28;20398;-71
2024/01/21 02:52:07;;;;;;;8.70;5.43;;;-1.50;99.90;;;;;;5115501;28;20967;-71
2024/01/21 02:54:32;;;;;;;11.30;5.93;;;-1.50;99.90;;;;;;5115846;28;20250;-72
2024/01/21 02:56:58;;;;;;;7.20;4.73;;;-1.50;99.90;;;;;;5096998;28;20176;-72
2024/01/21 02:59:23;;;;;;;9.30;6.10;;;-1.50;99.90;;;;;;5097120;28;20173;-72
2024/01/21 03:01:49;;;;;;;17.60;6.97;;;-1.50;99.90;;;;;;5115960;28;20169;-72
2024/01/21 03:04:14;;;;;;;14.10;6.13;;;-1.50;99.90;;;;;;5116398;28;20185;-72
2024/01/21 03:06:42;;;;;;;11.27;6.90;;;-1.50;99.90;;;;;;5097402;28;20176;-71
2024/01/21 03:09:08;;;;;;;11.47;6.77;;;-1.50;99.90;;;;;;5097250;28;20172;-71
2024/01/21 03:11:36;;;;;;;12.00;6.47;;;-1.50;99.90;;;;;;5115510;28;20414;-71
2024/01/21 03:14:01;;;;;;;7.37;5.60;;;-1.50;99.90;;;;;;5097008;28;20242;-71
2024/01/21 03:16:26;;;;;;;10.47;5.50;;;-1.50;99.90;;;;;;5115209;28;20846;-71
2024/01/21 03:18:52;;;;;;;8.30;5.83;;;-1.50;99.90;;;;;;5115428;28;20211;-71
2024/01/21 03:21:18;;;;;;;9.33;5.43;;;-1.50;99.90;;;;;;5115362;28;20226;-72
2024/01/21 03:23:43;;;;;;;13.70;7.47;;;-1.50;99.90;;;;;;5115386;28;20169;-71
2024/01/21 03:26:09;;;;;;;16.20;5.90;;;-1.50;99.90;;;;;;5115384;28;20176;-72
2024/01/21 03:28:34;;;;;;;9.53;5.70;;;-1.50;99.90;;;;;;5115551;28;20173;-71
2024/01/21 03:31:00;;;;;;;9.80;5.50;;;-1.40;99.90;;;;;;5115247;28;20207;-71
2024/01/21 03:33:26;;;;;;;10.70;7.20;;;-1.40;99.90;;;;;;5115079;28;20173;-70
2024/01/21 03:35:52;;;;;;;9.90;6.60;;;-1.40;99.90;;;;;;5114820;28;20540;-70
2024/01/21 03:38:18;;;;;;;12.83;6.30;;;-1.40;99.90;;;;;;5113798;28;20412;-71
2024/01/21 03:40:44;;;;;;;7.27;5.60;;;-1.40;99.90;;;;;;5115052;28;20399;-70
2024/01/21 03:43:09;;;;;;;6.73;5.10;;;-1.50;99.90;;;;;;5115045;28;20422;-71
2024/01/21 03:45:35;;;;;;;13.40;6.80;;;-1.40;99.90;;;;;;5096510;28;20205;-71
2024/01/21 03:48:01;;;;;;;10.83;7.07;;;-1.50;99.90;;;;;;5114982;28;20434;-71
2024/01/21 03:50:26;;;;;;;13.53;6.93;;;-1.50;99.90;;;;;;5096572;28;20280;-71
2024/01/21 03:52:52;;;;;;;18.90;6.47;;;-1.50;99.90;;;;;;5114668;28;20184;-71
2024/01/21 03:55:20;;;;;;;11.27;5.70;;;-1.60;99.90;;;;;;5114402;28;20208;-71
2024/01/21 03:57:45;;;;;;;15.80;8.13;;;-1.60;99.90;;;;;;5114682;28;20303;-71
2024/01/21 04:00:12;;;;;;;9.97;6.33;;;-1.60;99.90;;;;;;5114715;28;20494;-70
2024/01/21 04:02:37;;;;;;;12.73;6.50;;;-1.60;99.90;;;;;;5114574;28;20161;-71
2024/01/21 04:05:05;;;;;;;12.90;6.30;;;-1.60;99.90;;;;;;5096094;28;20444;-71
2024/01/21 04:07:30;;;;;;;10.67;7.73;;;-1.60;99.90;;;;;;5114410;28;20413;-70
2024/01/21 04:09:56;;;;;;;12.63;6.47;;;-1.60;99.90;;;;;;5114383;28;20398;-70
2024/01/21 04:12:21;;;;;;;20.87;8.10;;;-1.70;99.90;;;;;;5114229;28;20168;-70
2024/01/21 04:14:47;;;;;;;14.50;7.43;;;-1.60;99.90;;;;;;5114269;28;20205;-71
2024/01/21 04:17:13;;;;;;;21.63;8.27;;;-1.70;99.90;;;;;;5114169;28;20223;-71
2024/01/21 04:19:38;;;;;;;10.20;6.70;;;-1.60;99.90;;;;;;5114476;28;20240;-71
2024/01/21 04:22:04;;;;;;;13.03;7.70;;;-1.70;99.90;;;;;;5114318;28;20221;-71
2024/01/21 04:24:29;;;;;;;14.97;7.07;;;-1.70;99.90;;;;;;5114299;28;20188;-71
2024/01/21 04:26:55;;;;;;;20.13;6.77;;;-1.70;99.90;;;;;;5113973;28;20660;-70
2024/01/21 04:29:21;;;;;;;10.60;7.07;;;-1.70;99.90;;;;;;5114157;28;20165;-70
2024/01/21 04:31:46;;;;;;;19.83;8.20;;;-1.70;99.90;;;;;;5114266;28;20409;-71
2024/01/21 04:34:12;;;;;;;11.87;6.67;;;-1.70;99.90;;;;;;5113707;28;20275;-70
2024/01/21 04:36:38;;;;;;;11.50;6.60;;;-1.80;99.90;;;;;;5113849;28;20172;-70
2024/01/21 04:39:06;;;;;;;11.70;6.57;;;-1.70;99.90;;;;;;5095611;28;20403;-71
2024/01/21 04:41:32;;;;;;;8.73;6.77;;;-1.70;99.90;;;;;;5113906;28;20761;-71
2024/01/21 04:43:57;;;;;;;13.40;6.90;;;-1.70;99.90;;;;;;5113742;28;20399;-71
2024/01/21 04:46:23;;;;;;;13.33;7.17;;;-1.70;99.90;;;;;;5113531;28;20401;-71
2024/01/21 04:48:48;;;;;;;11.33;5.67;;;-1.60;99.90;;;;;;5113590;28;20160;-71
2024/01/21 04:51:14;;;;;;;14.23;6.37;;;-1.60;99.90;;;;;;5113235;28;20261;-72
2024/01/21 04:53:40;;;;;;;12.70;7.63;;;-1.60;99.90;;;;;;5113427;28;20188;-71
2024/01/21 04:56:06;;;;;;;10.30;5.50;;;-1.60;99.90;;;;;;5095265;28;20169;-71
2024/01/21 04:58:32;;;;;;;14.63;7.20;;;-1.50;99.90;;;;;;5113693;28;20200;-71
2024/01/21 05:00:58;;;;;;;8.43;6.20;;;-1.60;99.90;;;;;;5095211;28;20395;-70
2024/01/21 05:03:24;;;;;;;12.37;8.07;;;-1.60;99.90;;;;;;5113403;28;21163;-71
2024/01/21 05:05:49;;;;;;;12.07;6.83;;;-1.60;99.90;;;;;;5113024;28;20741;-70
2024/01/21 05:08:15;;;;;;;13.87;7.90;;;-1.50;99.90;;;;;;5113249;28;20160;-70
2024/01/21 05:10:40;;;;;;;9.47;5.23;;;-1.50;99.90;;;;;;5113120;28;20161;-71
2024/01/21 05:13:06;;;;;;;7.90;5.90;;;-1.40;99.90;;;;;;5113378;28;20682;-71
2024/01/21 05:15:31;;;;;;;8.23;6.10;;;-1.40;99.90;;;;;;5113019;28;20220;-71
2024/01/21 05:17:57;;;;;;;14.23;6.33;;;-1.40;99.90;;;;;;5113194;28;20630;-70
2024/01/21 05:20:23;;;;;;;6.70;5.73;;;-1.30;99.90;;;;;;5113428;28;20171;-70
2024/01/21 05:22:50;;;;;;;11.33;6.00;;;-1.40;99.90;;;;;;5113112;28;20511;-71
2024/01/21 05:25:16;;;;;;;14.80;7.90;;;-1.30;99.90;;;;;;5113053;28;20415;-71
2024/01/21 05:27:42;;;;;;;19.90;6.83;;;-1.30;99.90;;;;;;5113116;28;20403;-72
2024/01/21 05:30:08;;;;;;;8.27;5.40;;;-1.30;99.90;;;;;;5094780;28;20917;-71
2024/01/21 05:32:33;;;;;;;11.50;6.53;;;-1.20;99.90;;;;;;5112797;28;20169;-71
2024/01/21 05:34:59;;;;;;;13.60;6.03;;;-1.20;99.90;;;;;;5112455;28;20211;-71
2024/01/21 05:37:24;;;;;;;10.47;6.10;;;-1.20;99.90;;;;;;5112936;28;20157;-70
2024/01/21 05:39:50;;;;;;;10.30;5.40;;;-1.10;99.90;;;;;;5112765;28;20640;-71
2024/01/21 05:42:15;;;;;;;14.70;6.60;;;-1.10;99.90;;;;;;5112737;28;20168;-71
2024/01/21 05:44:41;;;;;;;9.80;5.67;;;-1.00;99.90;;;;;;5112766;28;20191;-71
2024/01/21 05:47:07;;;;;;;12.57;6.23;;;-1.00;99.90;;;;;;5112971;28;20192;-71
2024/01/21 05:49:32;;;;;;;11.50;6.20;;;-1.00;99.90;;;;;;5112598;28;20172;-70
2024/01/21 05:51:58;;;;;;;11.00;6.23;;;-1.10;99.90;;;;;;5112662;28;20215;-71
2024/01/21 05:54:25;;;;;;;14.50;6.53;;;-1.00;99.90;;;;;;5112735;28;20211;-71
2024/01/21 05:56:50;;;;;;;14.97;6.57;;;-1.10;99.90;;;;;;5112419;28;20215;-70
2024/01/21 05:59:17;;;;;;;10.17;5.93;;;-1.00;99.90;;;;;;5112637;28;20399;-70
2024/01/21 06:01:44;;;;;;;14.33;7.60;;;-1.00;99.90;;;;;;5111763;28;20161;-70
2024/01/21 06:04:10;;;;;;;10.33;6.10;;;-1.00;99.90;;;;;;5112295;28;20434;-71
2024/01/21 06:06:35;;;;;;;6.57;4.73;;;-1.00;99.90;;;;;;5093963;28;20415;-70
2024/01/21 06:09:01;;;;;;;11.70;5.67;;;-1.10;99.90;;;;;;5112421;28;20403;-72
2024/01/21 06:11:28;;;;;;;7.10;4.90;;;-1.00;99.90;;;;;;5112413;28;20172;-71
2024/01/21 06:13:53;;;;;;;18.73;4.93;;;-1.00;99.90;;;;;;5112136;28;20198;-70
2024/01/21 06:16:19;;;;;;;8.47;5.40;;;-1.00;99.90;;;;;;5093842;28;20619;-70
2024/01/21 06:18:44;;;;;;;9.27;5.33;;;-1.10;99.90;;;;;;5112352;28;20206;-72
2024/01/21 06:21:10;;;;;;;8.93;5.70;;;-1.10;99.90;;;;;;5112310;28;20169;-71
2024/01/21 06:23:35;;;;;;;11.37;5.73;;;-1.20;99.90;;;;;;5112373;28;20164;-71
2024/01/21 06:26:02;;;;;;;10.57;6.20;;;-1.10;99.90;;;;;;5111884;28;20685;-70
2024/01/21 06:28:28;;;;;;;10.37;5.73;;;-1.10;99.90;;;;;;5112327;28;20163;-70
2024/01/21 06:30:54;;;;;;;9.67;5.50;;;-1.00;99.90;;;;;;5093864;28;20403;-71
2024/01/21 06:33:20;;;;;;;14.47;6.33;;;-1.10;99.90;;;;;;5093944;28;20831;-70
2024/01/21 06:35:45;;;;;;;10.77;5.03;;;-1.00;99.90;;;;;;5111420;28;20201;-71
2024/01/21 06:38:11;;;;;;;12.20;4.43;;;-1.00;99.90;;;;;;5112101;28;20452;-70
2024/01/21 06:40:37;;;;;;;9.40;5.43;;;-1.00;99.90;;;;;;5112272;28;20161;-72
2024/01/21 06:43:02;;;;;;;10.53;5.53;;;-1.00;99.90;;;;;;5112193;28;20165;-71
2024/01/21 06:45:28;;;;;;;11.00;6.50;;;-0.80;99.90;;;;;;5111829;28;20748;-71
2024/01/21 06:47:53;;;;;;;6.13;4.00;;;-0.90;99.90;;;;;;5111931;28;20172;-71
2024/01/21 06:50:19;;;;;;;10.00;5.73;;;-0.80;99.90;;;;;;5111994;28;20176;-70
2024/01/21 06:52:44;;;;;;;6.57;5.47;;;-0.70;99.90;;;;;;5093708;28;20561;-70
2024/01/21 06:55:10;;;;;;;8.07;4.53;;;-0.70;99.90;;;;;;5111707;28;20196;-71
2024/01/21 06:57:36;;;;;;;9.30;5.17;;;-0.70;99.90;;;;;;5093578;28;20783;-71
2024/01/21 07:00:05;;;;;;;10.90;6.97;;;-0.70;99.90;;;;;;5111816;28;20536;-71
2024/01/21 07:02:32;;;;;;;9.37;6.17;;;-0.70;99.90;;;;;;5111653;28;20185;-71
2024/01/21 07:04:57;;;;;;;5.93;4.07;;;-0.80;99.90;;;;;;5111810;28;20426;-71
2024/01/21 07:07:23;;;;;;;8.33;5.33;;;-0.80;99.90;;;;;;5111863;28;20460;-70
2024/01/21 07:09:49;;;;;;;7.00;4.63;;;-0.60;99.90;;;;;;5111840;28;20199;-69
2024/01/21 07:12:14;;;;;;;15.83;5.37;;;-0.60;99.90;;;;;;5111907;28;20177;-71
2024/01/21 07:14:40;;;;;;;10.27;4.80;;;-0.50;99.90;;;;;;5115454;28;20214;-70
2024/01/21 07:17:05;;;;;;;11.03;6.00;;;-0.50;99.90;;;;;;5115281;28;20161;-71
2024/01/21 07:19:31;;;;;;;12.60;4.73;;;-0.50;99.90;;;;;;5115565;28;20247;-72
2024/01/21 07:21:56;;;;;;;12.63;4.60;;;-0.50;99.90;;;;;;5115292;28;20643;-71
2024/01/21 07:24:22;;;;;;;6.40;5.23;;;-0.40;99.90;;;;;;5115476;28;20199;-71
2024/01/21 07:26:47;;;;;;;7.60;4.93;;;-0.40;99.90;;;;;;5115044;28;20177;-71
2024/01/21 07:29:16;;;;;;;10.90;5.73;;;-0.30;99.90;;;;;;5115269;28;20221;-71
2024/01/21 07:31:41;;;;;;;8.07;4.93;;;-0.40;99.90;;;;;;5115082;28;20188;-71
2024/01/21 07:34:10;;;;;;;9.43;5.23;;;-0.40;99.90;;;;;;5115398;28;20454;-71
2024/01/21 07:36:36;;;;;;;10.23;5.30;;;-0.40;99.90;;;;;;5096825;28;20176;-69
2024/01/21 07:39:04;;;;;;;6.60;4.77;;;-0.30;99.90;;;;;;5115223;28;20405;-70
2024/01/21 07:41:30;;;;;;;6.20;5.37;;;-0.40;99.90;;;;;;5115355;28;20396;-70
2024/01/21 07:43:55;;;;;;;8.27;5.30;;;-0.30;99.90;;;;;;5115133;28;20405;-71
2024/01/21 07:46:21;;;;;;;9.13;5.30;;;-0.20;99.90;;;;;;5114819;28;20175;-70
2024/01/21 07:48:46;;;;;;;10.03;5.00;;;-0.20;99.90;;;;;;5114969;28;20194;-70
2024/01/21 07:51:12;;;;;;;6.70;5.57;;;-0.20;99.90;;;;;;5114633;28;20195;-70
2024/01/21 07:53:37;;;;;;;10.03;5.30;;;-0.20;99.90;;;;;;5114796;28;20677;-70
2024/01/21 07:56:03;;;;;;;9.27;4.90;;;-0.20;99.90;;;;;;5114443;28;20228;-71
2024/01/21 07:58:29;;;;;;;8.53;4.50;;;-0.20;99.90;;;;;;5114753;28;20276;-70
2024/01/21 08:00:54;;;;;;;10.43;5.77;;;-0.10;99.90;;;;;;5114695;28;20528;-69
2024/01/21 08:03:20;;;;;;;12.23;6.30;;;-0.10;99.90;;;;;;5114730;28;20640;-68
2024/01/21 08:05:45;;;;;;;10.93;6.57;;;0.00;99.90;;;;;;5114323;28;20239;-69
2024/01/21 08:08:11;;;;;;;10.53;5.17;;;0.00;99.90;;;;;;5114643;28;20792;-69
2024/01/21 08:10:36;;;;;;;15.20;5.97;;;0.00;99.90;;;;;;5114527;28;20169;-69
2024/01/21 08:13:02;;;;;;;9.17;5.77;;;0.10;99.90;;;;;;5114462;28;20169;-69
2024/01/21 08:15:27;;;;;;;9.83;5.93;;;0.10;99.90;;;;;;5114066;28;20241;-68
2024/01/21 08:17:53;;;;;;;7.90;5.37;;;0.10;99.90;;;;;;5114246;28;20580;-68
2024/01/21 08:20:19;;;;;;;11.27;5.90;;;0.20;99.90;;;;;;5114357;28;20176;-68
2024/01/21 08:22:45;;;;;;;8.70;4.87;;;0.20;99.90;;;;;;5114174;28;20161;-68
2024/01/21 08:25:10;;;;;;;7.50;4.70;;;0.30;99.90;;;;;;5113178;28;20959;-69
2024/01/21 08:27:36;;;;;;;13.60;5.70;;;0.40;99.90;;;;;;5114087;28;20169;-67
2024/01/21 08:30:04;;;;;;;11.40;5.47;;;0.50;99.90;;;;;;5114074;28;20165;-68
2024/01/21 08:32:29;;;;;;;7.77;5.27;;;0.60;99.90;;;;;;5095699;28;20677;-69
2024/01/21 08:34:55;;;;;;;9.60;6.43;;;0.60;99.90;;;;;;5113878;28;20482;-68
2024/01/21 08:37:20;;;;;;;6.70;5.30;;;0.50;99.90;;;;;;5113752;28;20244;-71
2024/01/21 08:39:48;;;;;;;8.83;5.50;;;0.50;99.90;;;;;;5113923;28;20168;-69
2024/01/21 08:42:13;;;;;;;8.37;5.43;;;0.50;99.90;;;;;;5113648;28;20188;-69
2024/01/21 08:44:39;;;;;;;9.50;5.50;;;0.60;99.90;;;;;;5113519;28;20441;-68
2024/01/21 08:47:04;;;;;;;9.03;5.73;;;0.70;99.90;;;;;;5113472;28;20322;-68
2024/01/21 08:49:30;;;;;;;9.47;5.93;;;0.70;99.90;;;;;;5113675;28;20168;-68
2024/01/21 08:51:55;;;;;;;10.87;5.63;;;0.80;99.90;;;;;;5113569;28;20198;-68
2024/01/21 08:54:21;;;;;;;9.03;5.30;;;0.90;99.90;;;;;;5113312;28;20200;-67
2024/01/21 08:56:48;;;;;;;21.00;5.33;;;0.90;99.90;;;;;;5113345;28;20190;-68
2024/01/21 08:59:13;;;;;;;4.63;3.60;;;1.00;99.90;;;;;;5113481;28;20157;-68
2024/01/21 09:01:39;;;;;;;6.63;4.23;;;1.20;99.90;;;;;;5113471;28;20818;-68
2024/01/21 09:04:04;;;;;;;6.53;4.40;;;1.30;99.90;;;;;;5112924;28;20195;-68
2024/01/21 09:06:30;;;;;;;8.67;5.57;;;1.50;99.90;;;;;;5094804;28;20547;-68
2024/01/21 09:08:57;;;;;;;8.43;4.90;;;1.70;99.90;;;;;;5113211;28;20169;-68
2024/01/21 09:11:23;;;;;;;10.37;4.10;;;1.90;99.90;;;;;;5113145;28;20495;-68
2024/01/21 09:13:49;;;;;;;9.93;5.43;;;2.10;99.90;;;;;;5112935;28;20474;-68
2024/01/21 09:16:16;;;;;;;6.30;3.77;;;2.20;99.90;;;;;;5112911;28;20251;-68
2024/01/21 09:18:41;;;;;;;11.90;4.90;;;2.30;99.90;;;;;;5113156;28;20547;-68
2024/01/21 09:21:07;;;;;;;8.33;4.73;;;2.50;99.90;;;;;;5113038;28;20399;-68
2024/01/21 09:23:33;;;;;;;9.27;5.63;;;2.70;99.40;;;;;;5113008;28;20164;-68
2024/01/21 09:25:58;;;;;;;9.63;5.60;;;2.80;98.40;;;;;;5112620;28;20679;-68
2024/01/21 09:28:24;;;;;;;9.80;5.37;;;2.90;98.10;;;;;;5113420;28;20172;-68
2024/01/21 09:30:49;;;;;;;7.10;4.73;;;3.20;97.30;;;;;;5112983;28;20157;-69
2024/01/21 09:33:17;;;;;;;8.80;5.23;;;3.20;95.10;;;;;;5113038;28;20160;-69
2024/01/21 09:35:42;;;;;;;8.73;5.27;;;3.30;93.90;;;;;;5112202;28;20201;-69
2024/01/21 09:38:10;;;;;;;5.77;4.20;;;3.40;94.30;;;;;;5112271;28;20401;-69
2024/01/21 09:40:36;;;;;;;7.27;4.20;;;3.50;92.60;;;;;;5112750;28;20185;-68
2024/01/21 09:43:02;;;;;;;7.20;5.20;;;3.50;91.60;;;;;;5112585;28;20394;-69
2024/01/21 09:45:31;;;;;;;8.60;5.20;;;3.70;91.10;;;;;;5112444;28;20569;-68
2024/01/21 09:47:59;;;;;;;10.80;5.73;;;3.90;91.20;;;;;;5112618;28;20414;-68
2024/01/21 09:50:26;;;;;;;9.30;5.43;;;4.20;90.00;;;;;;5112609;28;20805;-69
2024/01/21 09:52:52;;;;;;;9.07;5.37;;;4.60;89.70;;;;;;5112534;28;20426;-69
2024/01/21 09:55:18;;;;;;;11.60;5.53;;;5.10;85.90;;;;;;5112039;28;20462;-70
2024/01/21 09:57:44;;;;;;;8.43;5.30;;;5.40;80.00;;;;;;5112239;28;20160;-69
2024/01/21 10:00:13;;;;;;;10.20;5.40;;;5.50;77.30;;;;;;5112298;28;20399;-70
2024/01/21 10:02:42;;;;;;;10.97;5.70;;;5.90;75.10;;;;;;5112394;28;20948;-70
2024/01/21 10:05:08;;;;;;;7.27;5.17;;;6.00;69.10;;;;;;5111948;28;20433;-70
2024/01/21 10:07:36;;;;;;;7.70;5.40;;;6.30;65.90;;;;;;5112268;28;20485;-70
2024/01/21 10:10:02;;;;;;;8.90;5.47;;;6.40;65.20;;;;;;5112220;28;20415;-69
2024/01/21 10:12:27;;;;;;;8.40;5.87;;;6.00;62.70;;;;;;5112291;28;20421;-70
2024/01/21 10:14:53;;;;;;;7.77;5.47;;;6.10;63.90;;;;;;5112235;28;20208;-70
2024/01/21 10:17:25;;;;;;;9.50;5.20;;;6.00;63.10;;;;;;5112198;28;20213;-70
2024/01/21 10:19:53;;;;;;;6.17;4.93;;;5.90;62.90;;;;;;5112283;28;20689;-67
2024/01/21 10:22:21;;;;;;;8.40;5.30;;;5.70;64.10;;;;;;5112226;28;20909;-68
2024/01/21 10:24:49;;;;;;;6.13;5.37;;;5.70;64.60;;;;;;5111963;28;20414;-68
2024/01/21 10:27:15;;;;;;;5.83;4.77;;;5.70;64.80;;;;;;5111763;28;20403;-68
2024/01/21 10:29:43;;;;;;;6.33;4.70;;;5.70;65.50;;;;;;5112406;28;20815;-69
2024/01/21 10:32:09;;;;;;;13.20;4.40;;;5.80;66.70;;;;;;5112058;28;20451;-68
2024/01/21 10:34:39;;;;;;;9.77;5.93;;;5.70;66.40;;;;;;5111917;28;20604;-68
2024/01/21 10:37:05;;;;;;;6.57;5.63;;;5.50;68.30;;;;;;5111680;28;20399;-68
2024/01/21 10:39:36;;;;;;;10.07;4.90;;;5.30;68.80;;;;;;5112202;28;20399;-68
2024/01/21 10:42:05;;;;;;;9.70;5.73;;;5.00;69.40;;;;;;5111982;28;20161;-68
2024/01/21 10:44:30;;;;;;;6.73;4.77;;;4.90;71.70;;;;;;5111507;28;21065;-67
2024/01/21 10:46:59;;;;;;;19.93;5.77;;;4.90;74.50;;;;;;5111732;28;20482;-66
2024/01/21 10:49:24;;;;;;;7.57;5.50;;;4.90;75.30;;;;;;5115721;28;20176;-68
2024/01/21 10:51:53;;;;;;;8.20;5.40;;;5.10;76.70;;;;;;5115854;28;21130;-68
2024/01/21 10:54:19;;;;;;;6.37;4.63;;;5.20;77.90;;;;;;5115702;28;20231;-68
2024/01/21 10:56:47;;;;;;;17.73;4.33;;;5.30;78.60;;;;;;5115663;28;20394;-68
2024/01/21 10:59:13;;;;;;;8.07;6.00;;;5.30;78.90;;;;;;5115776;28;20411;-68
2024/01/21 11:01:42;;;;;;;6.87;4.83;;;5.30;80.00;;;;;;5115878;28;20768;-68
2024/01/21 11:04:12;;;;;;;5.37;4.60;;;5.30;80.40;;;;;;5097623;28;20675;-68
2024/01/21 11:06:41;;;;;;;6.10;4.70;;;5.50;82.40;;;;;;5115299;28;20813;-68
2024/01/21 11:09:08;;;;;;;7.80;5.73;;;5.50;83.00;;;;;;5115534;28;20434;-68
2024/01/21 11:11:47;;;;;;;10.67;6.30;;;5.60;85.30;;;;;;5115572;28;20411;-69
2024/01/21 11:14:37;;;;;;;10.10;4.87;;;5.70;86.40;;;;;;5115375;28;20450;-69
2024/01/21 11:17:10;;;;;;;6.40;4.47;;;5.80;86.70;;;;;;5104389;28;20422;-68
2024/01/21 11:19:48;;;;;;;6.80;5.73;;;5.90;88.70;;;;;;5095527;28;20433;-68
2024/01/21 11:22:14;;;;;;;6.47;5.33;;;5.90;88.10;;;;;;5077433;28;20473;-68
2024/01/21 11:24:40;;;;;;;7.93;5.57;;;6.10;88.60;;;;;;5095474;28;20423;-68
2024/01/21 11:27:15;;;;;;;7.20;4.57;;;5.90;89.10;;;;;;5094891;28;20914;-68
2024/01/21 11:29:41;;;;;;;10.23;4.70;;;5.70;90.40;;;;;;5095532;28;20399;-68
2024/01/21 11:32:10;;;;;;;8.67;4.70;;;5.80;92.00;;;;;;5104294;28;20402;-68
2024/01/21 11:34:40;;;;;;;6.20;4.57;;;6.00;92.70;;;;;;5115393;28;20541;-67
2024/01/21 11:37:10;;;;;;;6.67;4.47;;;6.10;93.10;;;;;;5114633;28;20403;-68
2024/01/21 11:39:37;;;;;;;5.43;3.87;;;6.30;93.10;;;;;;5115347;28;20402;-68
2024/01/21 11:42:03;;;;;;;7.77;4.20;;;6.50;93.40;;;;;;5115253;28;20405;-69
2024/01/21 11:44:30;;;;;;;6.07;3.80;;;6.50;93.20;;;;;;5115105;28;20530;-68
2024/01/21 11:47:04;;;;;;;6.53;4.33;;;6.70;93.80;;;;;;5104072;28;20513;-68
2024/01/21 11:49:31;;;;;;;4.30;3.50;;;6.50;94.30;;;;;;5094862;28;20957;-68
2024/01/21 11:52:05;;;;;;;4.87;3.20;;;6.50;95.00;;;;;;5094888;28;20480;-68
2024/01/21 11:54:31;;;;;;;8.00;3.33;;;6.60;94.80;;;;;;5094601;28;20458;-68
2024/01/21 11:56:57;;;;;;;7.87;3.73;;;6.50;95.20;;;;;;5094542;28;20420;-68
2024/01/21 11:59:24;;;;;;;4.60;3.70;;;6.60;96.80;;;;;;5093599;28;20479;-69
2024/01/21 12:01:50;;;;;;;8.10;3.40;;;6.60;95.50;;;;;;5095013;28;20400;-69
2024/01/21 12:04:15;;;;;;;6.20;4.50;;;6.70;96.00;;;;;;5094351;28;20437;-69
2024/01/21 12:06:46;;;;;;;6.50;3.80;;;6.90;95.90;;;;;;5094848;28;20253;-69
2024/01/21 12:09:12;;;;;;;5.53;3.63;;;7.10;95.70;;;;;;5094766;28;20166;-69
2024/01/21 12:11:39;;;;;;;6.53;3.97;;;7.20;95.50;;;;;;5097563;28;20425;-69
2024/01/21 12:14:06;;;;;;;4.60;3.87;;;7.20;95.20;;;;;;5114570;28;20469;-69
2024/01/21 12:16:33;;;;;;;6.43;4.83;;;7.20;95.00;;;;;;5114397;28;20403;-69
2024/01/21 12:19:00;;;;;;;6.97;4.67;;;7.10;95.20;;;;;;5114683;28;20486;-69
2024/01/21 12:21:30;;;;;;;5.70;4.40;;;7.10;95.50;;;;;;5114381;28;20395;-69
2024/01/21 12:24:02;;;;;;;7.90;4.03;;;7.10;96.30;;;;;;5114495;28;20406;-69
2024/01/21 12:26:27;;;;;;;6.73;3.37;;;6.90;97.20;;;;;;5107300;28;20450;-69
2024/01/21 12:28:57;;;;;;;6.20;4.17;;;6.90;98.90;;;;;;5094321;28;20407;-69
2024/01/21 12:31:30;;;;;;;7.20;4.30;;;6.80;99.90;;;;;;5094139;28;20165;-69
2024/01/21 12:33:57;;;;;;;3.60;2.77;;;6.80;99.90;;;;;;5073532;28;20974;-69
2024/01/21 12:36:23;;;;;;;3.33;3.00;;;6.70;99.90;;;;;;5073364;28;20484;-69
2024/01/21 12:38:52;;;;;;;4.07;3.10;;;6.80;99.90;;;;;;5093369;28;20523;-69
2024/01/21 12:41:18;;;;;;;6.13;3.90;;;6.60;99.90;;;;;;5093983;28;20404;-69